Time;durP1;ratioP1;P1;durP2;ratioP2;P2;SDS_P1;SDS_P2;PMS_P1;PMS_P2;Temp;Humidity;BMP_temperature;BMP_pressure;BME280_temperature;BME280_humidity;BME280_pressure;Samples;Min_cycle;Max_cycle;Signal;HPM_P1;HPM_P2
2023/04/18 00:14:37;;;;;;;8.83;2.13;;;;;;;13.22;92.26;100400.78;31357284;28;20075;-72
2023/04/18 00:29:39;;;;;;;13.50;2.07;;;;;;;12.83;95.46;100407.16;31353676;28;20046;-74
2023/04/18 00:44:41;;;;;;;10.03;1.70;;;;;;;12.98;94.91;100389.28;31374041;28;20107;-73
2023/04/18 00:59:45;;;;;;;4.70;1.93;;;;;;;12.70;99.26;100384.53;31341750;28;20050;-74
2023/04/18 01:14:47;;;;;;;10.10;1.97;;;;;;;12.63;100.00;100378.03;31357064;28;20731;-73
2023/04/18 01:29:49;;;;;;;7.13;1.63;;;;;;;12.41;100.00;100381.69;31353392;28;20087;-73
2023/04/18 01:44:51;;;;;;;6.93;1.50;;;;;;;12.32;100.00;100381.50;31343678;28;20145;-74
2023/04/18 01:59:53;;;;;;;7.57;1.83;;;;;;;12.25;100.00;100390.59;31330943;28;20486;-74
2023/04/18 02:14:55;;;;;;;7.67;1.90;;;;;;;11.77;100.00;100397.44;31365742;28;20115;-74
2023/04/18 02:29:56;;;;;;;16.87;3.27;;;;;;;11.83;100.00;100405.84;31334358;28;20055;-73
2023/04/18 02:44:58;;;;;;;6.50;1.97;;;;;;;11.74;100.00;100408.34;31396908;28;20468;-74
2023/04/18 03:00:00;;;;;;;14.67;1.97;;;;;;;11.48;100.00;100399.91;31366382;28;20512;-73
2023/04/18 03:15:02;;;;;;;15.70;2.87;;;;;;;11.47;100.00;100392.16;31362711;28;20085;-73
2023/04/18 03:30:05;;;;;;;12.90;2.73;;;;;;;11.41;100.00;100386.41;31362085;28;20651;-73
2023/04/18 03:45:07;;;;;;;14.57;2.07;;;;;;;11.11;100.00;100392.78;31346974;28;20093;-74
2023/04/18 04:00:11;;;;;;;19.27;3.23;;;;;;;11.26;100.00;100394.06;31345276;28;20053;-74
2023/04/18 04:15:13;;;;;;;13.43;2.70;;;;;;;11.36;100.00;100421.47;31355309;28;20083;-74
2023/04/18 04:30:15;;;;;;;14.17;2.77;;;;;;;11.48;100.00;100412.72;31352665;28;20057;-74
2023/04/18 04:45:18;;;;;;;11.17;2.33;;;;;;;11.94;100.00;100411.84;31357900;28;20057;-75
2023/04/18 05:00:20;;;;;;;8.97;2.80;;;;;;;12.26;100.00;100405.75;31342842;28;20073;-73
2023/04/18 05:15:23;;;;;;;12.87;3.00;;;;;;;12.99;100.00;100379.91;31347699;28;20754;-73
2023/04/18 05:30:25;;;;;;;18.07;2.80;;;;;;;12.98;100.00;100394.72;31337837;28;20052;-74
2023/04/18 05:45:27;;;;;;;14.30;4.07;;;;;;;13.75;100.00;100380.22;31348433;28;20061;-74
2023/04/18 06:00:29;;;;;;;14.87;2.63;;;;;;;14.03;100.00;100388.81;31332024;28;20375;-74
2023/04/18 06:15:31;;;;;;;15.03;3.53;;;;;;;14.28;100.00;100383.38;31338844;28;20535;-73
2023/04/18 06:30:33;;;;;;;11.47;3.50;;;;;;;15.47;91.85;100381.84;31322763;28;20088;-72
2023/04/18 06:45:35;;;;;;;9.47;2.30;;;;;;;15.45;93.06;100378.78;31313053;28;20063;-74
2023/04/18 07:00:37;;;;;;;12.23;3.77;;;;;;;15.94;88.06;100381.72;31333407;28;20102;-72
2023/04/18 07:15:39;;;;;;;21.33;3.60;;;;;;;16.00;87.65;100375.22;31340007;28;20052;-74
2023/04/18 07:30:41;;;;;;;18.17;2.37;;;;;;;16.89;84.63;100376.47;31334783;28;20048;-74
2023/04/18 07:45:43;;;;;;;7.97;2.10;;;;;;;17.87;78.13;100378.91;31329307;28;20063;-76
2023/04/18 08:00:45;;;;;;;9.50;2.80;;;;;;;17.81;75.18;100391.72;31347268;28;20443;-75
2023/04/18 08:15:47;;;;;;;12.30;4.33;;;;;;;17.89;74.66;100373.69;31317577;28;20057;-79
2023/04/18 08:30:50;;;;;;;6.43;2.63;;;;;;;18.98;75.78;100368.91;31344240;28;20045;-77
2023/04/18 08:45:59;;;;;;;20.70;2.97;;;;;;;18.60;69.31;100364.91;31351290;28;20111;-78
2023/04/18 09:01:01;;;;;;;12.93;2.33;;;;;;;20.18;66.86;100353.56;31328620;28;20053;-78
2023/04/18 09:16:05;;;;;;;15.20;3.35;;;;;;;20.64;62.20;100350.97;31318227;28;20111;-79
2023/04/18 09:31:12;;;;;;;19.92;2.35;;;;;;;20.65;61.04;100352.50;31298732;28;20045;-80
2023/04/18 09:46:16;;;;;;;12.32;2.33;;;;;;;21.07;60.01;100331.94;31360762;28;20052;-77
2023/04/18 10:01:18;;;;;;;13.45;2.35;;;;;;;21.64;57.53;100328.53;31331981;28;20054;-81
2023/04/18 10:16:21;;;;;;;16.40;2.88;;;;;;;21.64;57.17;100339.56;31359426;28;20053;-77
2023/04/18 10:31:25;;;;;;;13.52;2.80;;;;;;;21.59;59.71;100334.75;31343472;28;20072;-75
2023/04/18 10:46:27;;;;;;;13.00;2.45;;;;;;;22.74;56.79;100338.81;31311947;28;20053;-76
2023/04/18 11:01:36;;;;;;;14.18;2.95;;;;;;;23.21;54.39;100319.88;31355730;28;20096;-78
2023/04/18 11:16:38;;;;;;;13.52;2.95;;;;;;;23.11;55.30;100321.38;31348892;28;20615;-77
2023/04/18 11:31:52;;;;;;;11.10;2.93;;;;;;;23.80;54.04;100302.31;31338594;28;20413;-86
2023/04/18 11:46:58;;;;;;;9.27;2.85;;;;;;;21.86;59.79;100278.97;31350078;28;20059;-79
2023/04/18 12:02:03;;;;;;;8.93;2.40;;;;;;;20.11;74.25;100287.81;31344116;28;20053;-78
2023/04/18 12:17:17;;;;;;;12.57;3.42;;;;;;;19.24;78.64;100267.34;31330857;28;20098;-80
2023/04/18 12:32:20;;;;;;;18.33;3.53;;;;;;;19.05;83.30;100244.75;31345518;28;20514;-79
2023/04/18 12:47:23;;;;;;;13.27;3.45;;;;;;;19.12;91.00;100247.16;31307849;28;20485;-78
2023/04/18 13:02:27;;;;;;;9.00;3.05;;;;;;;19.03;96.39;100247.22;31288821;28;20052;-81
2023/04/18 13:17:30;;;;;;;11.23;2.80;;;;;;;19.12;96.97;100235.38;31321145;28;20053;-75
2023/04/18 13:32:32;;;;;;;7.53;3.17;;;;;;;19.17;98.24;100207.19;31315682;28;20040;-75
2023/04/18 13:47:34;;;;;;;11.43;2.83;;;;;;;19.27;98.20;100205.88;31366836;28;20083;-76
2023/04/18 14:02:36;;;;;;;3.60;2.28;;;;;;;19.34;99.37;100200.00;31336498;28;20490;-76
2023/04/18 14:17:38;;;;;;;6.55;2.53;;;;;;;19.30;100.00;100208.44;31330879;28;20053;-76
2023/04/18 14:32:40;;;;;;;14.25;2.75;;;;;;;19.25;100.00;100198.09;31373460;28;20045;-77
2023/04/18 14:47:43;;;;;;;11.40;4.80;;;;;;;19.15;100.00;100188.41;31355626;28;20796;-80
2023/04/18 15:02:45;;;;;;;13.20;4.03;;;;;;;18.93;100.00;100182.50;31323944;28;20049;-75
2023/04/18 15:17:50;;;;;;;11.18;2.80;;;;;;;18.79;100.00;100188.78;31337136;28;20056;-75
2023/04/18 15:32:52;;;;;;;6.55;2.95;;;;;;;18.68;100.00;100187.31;31339719;28;20052;-78
2023/04/18 15:47:54;;;;;;;14.73;3.30;;;;;;;18.50;100.00;100198.44;31334065;28;20080;-78
2023/04/18 16:02:56;;;;;;;13.23;3.60;;;;;;;18.34;100.00;100209.88;31342366;28;20045;-77
2023/04/18 16:18:00;;;;;;;7.78;2.90;;;;;;;18.01;100.00;100213.44;31353019;28;20060;-75
2023/04/18 16:33:03;;;;;;;63.63;12.17;;;;;;;17.76;100.00;100222.09;31331554;28;20048;-76
2023/04/18 16:48:05;;;;;;;23.30;9.27;;;;;;;17.53;100.00;100225.50;31345309;28;20061;-77
2023/04/18 17:03:08;;;;;;;14.13;5.53;;;;;;;17.30;100.00;100219.50;31315191;28;20061;-76
2023/04/18 17:18:10;;;;;;;13.37;5.07;;;;;;;17.20;100.00;100236.44;31341925;28;20152;-74
2023/04/18 17:33:12;;;;;;;14.00;5.23;;;;;;;17.06;100.00;100224.09;31342523;28;20053;-77
2023/04/18 17:48:15;;;;;;;16.73;4.50;;;;;;;16.74;100.00;100206.34;31335855;28;20095;-79
2023/04/18 18:03:18;;;;;;;13.67;4.00;;;;;;;16.54;100.00;100186.78;31307752;28;20072;-78
2023/04/18 18:18:21;;;;;;;8.77;4.57;;;;;;;16.47;100.00;100196.09;31315404;28;20058;-79
2023/04/18 18:33:24;;;;;;;13.17;3.53;;;;;;;16.25;100.00;100181.78;31322952;28;20119;-77
2023/04/18 18:48:27;;;;;;;13.73;4.40;;;;;;;16.10;100.00;100180.81;31344717;28;20087;-78
2023/04/18 19:03:29;;;;;;;9.77;3.60;;;;;;;15.91;100.00;100158.91;31342415;28;20060;-78
2023/04/18 19:18:31;;;;;;;11.97;4.37;;;;;;;15.76;100.00;100168.16;31346779;28;20512;-75
2023/04/18 19:33:33;;;;;;;75.67;26.97;;;;;;;15.80;100.00;100164.06;31360044;28;20056;-76
2023/04/18 19:48:35;;;;;;;14.30;5.43;;;;;;;15.74;100.00;100157.66;31340160;28;20136;-78
2023/04/18 20:03:38;;;;;;;7.33;3.10;;;;;;;15.59;100.00;100151.22;31334267;28;20053;-81
2023/04/18 20:18:41;;;;;;;13.20;6.20;;;;;;;15.39;100.00;100137.13;31297859;28;20064;-83
2023/04/18 20:33:42;;;;;;;17.00;4.93;;;;;;;15.17;100.00;100128.97;31318408;28;20049;-75
2023/04/18 20:48:45;;;;;;;9.20;4.03;;;;;;;15.03;100.00;100086.53;31326524;28;20500;-74
2023/04/18 21:03:47;;;;;;;13.90;4.83;;;;;;;14.89;100.00;100079.63;31324622;28;20049;-75
2023/04/18 21:18:49;;;;;;;15.43;5.20;;;;;;;14.93;100.00;100065.81;31300337;28;20092;-74
2023/04/18 21:33:52;;;;;;;18.37;7.17;;;;;;;14.84;100.00;100058.38;31331788;28;20098;-74
2023/04/18 21:48:54;;;;;;;17.63;8.00;;;;;;;14.73;100.00;100040.84;31321603;28;20475;-74
2023/04/18 22:03:56;;;;;;;10.40;3.83;;;;;;;14.78;100.00;100021.13;31331485;28;20084;-74
2023/04/18 22:18:59;;;;;;;13.53;3.80;;;;;;;14.84;100.00;100014.63;31343696;28;20064;-73
2023/04/18 22:34:01;;;;;;;10.47;3.90;;;;;;;14.84;100.00;99997.47;31310158;28;20101;-74
2023/04/18 22:49:04;;;;;;;14.80;4.83;;;;;;;14.75;100.00;99983.78;31322784;28;20053;-72
2023/04/18 23:04:06;;;;;;;16.60;7.03;;;;;;;14.62;100.00;99970.97;31313122;28;20148;-73
2023/04/18 23:19:08;;;;;;;21.57;7.10;;;;;;;14.47;100.00;99963.75;31332098;28;20053;-73
2023/04/18 23:34:10;;;;;;;18.90;7.17;;;;;;;14.37;100.00;99941.09;31331835;28;20072;-72
2023/04/18 23:49:12;;;;;;;21.10;6.03;;;;;;;14.40;100.00;99937.47;31342304;28;20081;-72
